createdAt,value
2018-05-17T00:00:45.791Z,20.12
2018-05-17T00:03:12.453Z,17.90
2018-05-17T00:05:39.186Z,18.65
2018-05-17T00:08:05.806Z,16.58
2018-05-17T00:10:32.463Z,16.62
2018-05-17T00:12:59.206Z,18.27
2018-05-17T00:15:25.831Z,19.12
2018-05-17T00:17:52.608Z,17.65
2018-05-17T00:20:19.322Z,19.37
2018-05-17T00:22:45.959Z,16.83
2018-05-17T00:25:12.619Z,16.73
2018-05-17T00:27:39.243Z,18.50
2018-05-17T00:30:05.876Z,17.75
2018-05-17T00:32:32.628Z,18.05
2018-05-17T00:34:59.267Z,18.65
2018-05-17T00:37:25.917Z,17.87
2018-05-17T00:39:52.666Z,21.60
2018-05-17T00:42:19.308Z,20.15
2018-05-17T00:44:45.952Z,18.52
2018-05-17T00:47:12.685Z,18.75
2018-05-17T00:49:39.326Z,20.75
2018-05-17T00:52:05.968Z,19.58
2018-05-17T00:54:32.687Z,18.45
2018-05-17T00:56:59.330Z,21.42
2018-05-17T00:59:25.962Z,20.58
2018-05-17T01:01:52.699Z,24.37
2018-05-17T01:04:19.336Z,20.17
2018-05-17T01:06:46.079Z,20.37
2018-05-17T01:09:12.724Z,21.80
2018-05-17T01:11:39.461Z,19.37
2018-05-17T01:14:06.100Z,19.90
2018-05-17T01:16:32.735Z,19.60
2018-05-17T01:18:59.370Z,19.70
2018-05-17T01:21:26.124Z,21.42
2018-05-17T01:23:52.750Z,24.12
2018-05-17T01:26:19.394Z,19.67
2018-05-17T01:28:46.015Z,20.35
2018-05-17T01:31:12.651Z,20.52
2018-05-17T01:33:39.294Z,20.40
2018-05-17T01:36:05.950Z,21.45
2018-05-17T01:38:32.618Z,20.77
2018-05-17T01:40:59.335Z,19.73
2018-05-17T01:43:25.967Z,23.92
2018-05-17T01:45:52.718Z,20.45
2018-05-17T01:48:19.454Z,23.55
2018-05-17T01:50:46.200Z,20.65
2018-05-17T01:53:12.933Z,20.88
2018-05-17T01:55:39.567Z,22.95
2018-05-17T01:58:06.333Z,20.08
2018-05-17T02:00:32.964Z,21.25
2018-05-17T02:02:59.697Z,19.15
2018-05-17T02:05:26.327Z,18.40
2018-05-17T02:07:52.980Z,19.00
2018-05-17T02:10:19.682Z,22.35
2018-05-17T02:12:46.315Z,20.27
2018-05-17T02:15:12.962Z,24.42
2018-05-17T02:17:39.587Z,19.50
2018-05-17T02:20:06.284Z,19.83
2018-05-17T02:22:33.019Z,19.23
2018-05-17T02:24:59.756Z,19.17
2018-05-17T02:27:26.403Z,20.27
2018-05-17T02:29:53.134Z,20.80
2018-05-17T02:32:19.788Z,20.60
2018-05-17T02:34:46.431Z,19.95
2018-05-17T02:37:13.052Z,19.08
2018-05-17T02:39:39.702Z,19.48
2018-05-17T02:42:06.352Z,19.20
2018-05-17T02:44:33.924Z,22.90
2018-05-17T02:47:00.641Z,21.40
2018-05-17T02:49:27.378Z,21.52
2018-05-17T02:51:54.117Z,22.17
2018-05-17T02:54:20.752Z,21.42
2018-05-17T02:56:47.395Z,21.80
2018-05-17T02:59:14.038Z,22.50
2018-05-17T03:01:40.678Z,19.35
2018-05-17T03:04:07.326Z,19.67
2018-05-17T03:06:33.955Z,17.48
2018-05-17T03:09:00.693Z,17.77
2018-05-17T03:11:27.347Z,18.40
2018-05-17T03:13:53.985Z,17.27
2018-05-17T03:16:20.710Z,19.58
2018-05-17T03:18:47.349Z,18.05
2018-05-17T03:21:13.990Z,16.77
2018-05-17T03:23:40.629Z,17.67
2018-05-17T03:26:07.263Z,17.90
2018-05-17T03:28:33.994Z,17.85
2018-05-17T03:31:00.651Z,18.08
2018-05-17T03:33:27.279Z,23.65
2018-05-17T03:35:54.039Z,16.98
2018-05-17T03:38:20.662Z,14.85
2018-05-17T03:40:47.415Z,17.35
2018-05-17T03:43:14.044Z,15.52
2018-05-17T03:45:40.790Z,20.20
2018-05-17T03:48:07.440Z,17.75
2018-05-17T03:50:34.076Z,16.00
2018-05-17T03:53:00.719Z,18.10
2018-05-17T03:55:27.359Z,16.52
2018-05-17T03:57:53.986Z,16.48
2018-05-17T04:00:20.625Z,17.75
2018-05-17T04:02:53.206Z,22.92
2018-05-17T04:05:25.886Z,17.65
2018-05-17T04:07:52.506Z,19.27
2018-05-17T04:10:19.167Z,18.23
2018-05-17T04:12:45.804Z,19.52
2018-05-17T04:15:12.547Z,25.00
2018-05-17T04:17:39.182Z,20.42
2018-05-17T04:20:05.816Z,18.92
2018-05-17T04:22:32.466Z,18.35
2018-05-17T04:24:59.094Z,17.37
2018-05-17T04:27:25.735Z,20.60
2018-05-17T04:29:52.408Z,21.75
2018-05-17T04:32:19.041Z,20.70
2018-05-17T04:34:45.688Z,21.85
2018-05-17T04:37:12.394Z,22.33
2018-05-17T04:39:39.022Z,19.73
2018-05-17T04:42:05.679Z,21.92
2018-05-17T04:44:32.342Z,22.67
2018-05-17T04:46:59.036Z,22.30
2018-05-17T04:49:25.698Z,20.67
2018-05-17T04:51:52.328Z,20.17
2018-05-17T04:54:19.084Z,18.33
2018-05-17T04:56:45.715Z,19.62
2018-05-17T04:59:12.458Z,19.33
2018-05-17T05:01:39.199Z,19.85
2018-05-17T05:04:05.836Z,26.17
2018-05-17T05:06:32.479Z,21.12
2018-05-17T05:08:59.142Z,19.10
2018-05-17T05:11:25.792Z,19.98
2018-05-17T05:13:52.424Z,21.73
2018-05-17T05:16:19.144Z,20.73
2018-05-17T05:18:45.779Z,20.00
2018-05-17T05:21:12.518Z,21.87
2018-05-17T05:23:39.267Z,21.05
2018-05-17T05:26:05.899Z,20.80
2018-05-17T05:28:32.648Z,19.62
2018-05-17T05:30:59.282Z,27.27
2018-05-17T05:33:25.911Z,22.02
2018-05-17T05:35:52.567Z,23.70
2018-05-17T05:38:19.213Z,23.83
2018-05-17T05:40:45.939Z,24.92
2018-05-17T05:43:12.598Z,29.27
2018-05-17T05:45:39.223Z,26.87
2018-05-17T05:48:05.860Z,23.08
2018-05-17T05:50:32.487Z,22.00
2018-05-17T05:52:59.140Z,28.70
2018-05-17T05:55:25.770Z,26.70
2018-05-17T05:57:52.406Z,31.20
2018-05-17T06:00:19.056Z,24.87
2018-05-17T06:02:45.790Z,33.63
2018-05-17T06:05:12.410Z,26.60
2018-05-17T06:07:39.066Z,26.40
2018-05-17T06:10:05.694Z,23.23
2018-05-17T06:12:32.344Z,28.70
2018-05-17T06:14:58.980Z,27.15
2018-05-17T06:17:25.675Z,24.85
2018-05-17T06:19:52.270Z,31.50
2018-05-17T06:22:19.015Z,26.23
2018-05-17T06:24:45.748Z,36.67
2018-05-17T06:27:12.483Z,27.02
2018-05-17T06:29:39.111Z,19.05
2018-05-17T06:32:05.746Z,23.45
2018-05-17T06:34:32.374Z,21.55
2018-05-17T06:36:59.038Z,25.30
2018-05-17T06:39:25.666Z,25.80
2018-05-17T06:41:52.318Z,23.50
2018-05-17T06:44:19.072Z,21.83
2018-05-17T06:46:45.806Z,22.65
2018-05-17T06:49:12.542Z,25.58
2018-05-17T06:51:39.214Z,22.20
2018-05-17T06:54:05.955Z,19.50
2018-05-17T06:56:32.592Z,25.30
2018-05-17T06:58:59.214Z,18.17
2018-05-17T07:01:25.955Z,26.20
2018-05-17T07:03:52.578Z,24.02
2018-05-17T07:06:19.206Z,27.90
2018-05-17T07:08:45.848Z,26.25
2018-05-17T07:11:12.481Z,20.10
2018-05-17T07:13:39.127Z,26.20
2018-05-17T07:16:05.913Z,24.12
2018-05-17T07:18:32.859Z,21.95
2018-05-17T07:20:59.365Z,26.33
2018-05-17T07:23:25.999Z,25.75
2018-05-17T07:25:52.652Z,32.53
2018-05-17T07:28:19.274Z,25.00
2018-05-17T07:30:45.926Z,27.67
2018-05-17T07:33:12.579Z,24.85
2018-05-17T07:35:39.309Z,24.52
2018-05-17T07:38:05.959Z,25.60
2018-05-17T07:40:32.711Z,27.90
2018-05-17T07:42:59.427Z,26.42
2018-05-17T07:45:26.076Z,24.40
2018-05-17T07:47:52.698Z,21.83
2018-05-17T07:50:19.446Z,21.92
2018-05-17T07:52:46.074Z,22.95
2018-05-17T07:55:12.735Z,32.22
2018-05-17T07:57:39.375Z,21.70
2018-05-17T08:00:06.020Z,21.70
2018-05-17T08:02:32.769Z,20.92
2018-05-17T08:04:59.495Z,18.85
2018-05-17T08:07:26.127Z,25.20
2018-05-17T08:09:52.771Z,24.83
2018-05-17T08:12:19.403Z,19.17
2018-05-17T08:14:46.051Z,23.80
2018-05-17T08:17:12.787Z,22.45
2018-05-17T08:19:39.531Z,21.12
2018-05-17T08:22:06.161Z,18.50
2018-05-17T08:24:32.797Z,23.65
2018-05-17T08:26:59.451Z,20.37
2018-05-17T08:29:26.194Z,27.80
2018-05-17T08:31:52.920Z,18.17
2018-05-17T08:34:19.664Z,18.45
2018-05-17T08:36:46.326Z,18.33
2018-05-17T08:39:13.047Z,17.33
2018-05-17T08:41:39.668Z,21.73
2018-05-17T08:44:06.300Z,20.90
2018-05-17T08:46:32.949Z,20.90
2018-05-17T08:48:59.593Z,18.98
2018-05-17T08:51:26.284Z,25.75
2018-05-17T08:53:52.916Z,19.05
2018-05-17T08:56:19.553Z,19.52
2018-05-17T08:58:46.195Z,20.12
2018-05-17T09:01:12.847Z,14.93
2018-05-17T09:03:39.625Z,14.87
2018-05-17T09:06:06.271Z,17.83
2018-05-17T09:08:32.839Z,20.83
2018-05-17T09:10:59.587Z,19.23
2018-05-17T09:13:26.222Z,21.17
2018-05-17T09:15:52.968Z,14.40
2018-05-17T09:18:19.605Z,18.55
2018-05-17T09:20:46.231Z,15.35
2018-05-17T09:23:12.885Z,16.83
2018-05-17T09:25:39.524Z,18.00
2018-05-17T09:28:06.184Z,18.83
2018-05-17T09:30:32.904Z,19.50
2018-05-17T09:32:59.531Z,18.55
2018-05-17T09:35:26.191Z,17.42
2018-05-17T09:37:52.820Z,16.30
2018-05-17T09:40:19.545Z,15.93
2018-05-17T09:42:46.279Z,20.30
2018-05-17T09:45:12.906Z,17.23
2018-05-17T09:47:39.756Z,17.70
2018-05-17T09:50:06.326Z,27.80
2018-05-17T09:52:33.047Z,14.23
2018-05-17T09:55:00.656Z,16.70
2018-05-17T09:57:27.265Z,19.55
2018-05-17T09:59:53.911Z,20.20
2018-05-17T10:02:20.549Z,20.17
2018-05-17T10:04:47.286Z,16.42
2018-05-17T10:07:14.088Z,15.48
2018-05-17T10:09:40.739Z,22.13
2018-05-17T10:12:07.384Z,14.20
2018-05-17T10:14:34.041Z,21.67
2018-05-17T10:17:00.686Z,20.37
2018-05-17T10:19:27.318Z,19.98
2018-05-17T10:21:54.106Z,18.42
2018-05-17T10:24:20.693Z,17.00
2018-05-17T10:26:47.328Z,17.00
2018-05-17T10:29:13.977Z,15.30
2018-05-17T10:31:40.616Z,19.87
2018-05-17T10:34:07.266Z,16.02
2018-05-17T10:36:33.975Z,19.15
2018-05-17T10:39:00.640Z,15.60
2018-05-17T10:41:27.291Z,16.35
2018-05-17T10:43:53.924Z,15.98
2018-05-17T10:46:20.640Z,21.23
2018-05-17T10:48:47.286Z,20.20
2018-05-17T10:51:13.920Z,16.67
2018-05-17T10:53:40.566Z,16.08
2018-05-17T10:56:07.320Z,12.82
2018-05-17T10:58:33.964Z,13.75
2018-05-17T11:01:00.701Z,16.20
2018-05-17T11:03:27.329Z,12.77
2018-05-17T11:05:53.985Z,13.02
2018-05-17T11:08:20.719Z,16.95
2018-05-17T11:10:47.360Z,16.90
2018-05-17T11:13:14.005Z,17.73
2018-05-17T11:15:40.640Z,16.40
2018-05-17T11:18:07.294Z,12.10
2018-05-17T11:20:33.995Z,13.35
2018-05-17T11:23:00.861Z,13.38
2018-05-17T11:25:27.502Z,11.88
2018-05-17T11:27:54.243Z,16.50
2018-05-17T11:30:20.954Z,17.27
2018-05-17T11:32:47.591Z,14.02
2018-05-17T11:35:14.241Z,11.77
2018-05-17T11:37:40.883Z,14.23
2018-05-17T11:40:07.512Z,12.10
2018-05-17T11:42:34.147Z,17.40
2018-05-17T11:45:00.795Z,11.57
2018-05-17T11:47:27.420Z,10.07
2018-05-17T11:49:54.168Z,13.35
2018-05-17T11:52:20.794Z,23.65
2018-05-17T11:54:47.551Z,13.27
2018-05-17T11:57:14.186Z,13.75
2018-05-17T11:59:40.826Z,11.15
2018-05-17T12:02:07.476Z,15.15
2018-05-17T12:04:34.108Z,12.70
2018-05-17T12:07:00.766Z,10.00
2018-05-17T12:09:27.394Z,8.88
2018-05-17T12:11:54.122Z,10.77
2018-05-17T12:14:20.814Z,9.57
2018-05-17T12:16:47.535Z,12.70
2018-05-17T12:19:14.198Z,11.60
2018-05-17T12:21:40.838Z,10.05
2018-05-17T12:24:07.473Z,11.80
2018-05-17T12:26:34.176Z,13.30
2018-05-17T12:29:00.833Z,14.77
2018-05-17T12:31:27.462Z,8.98
2018-05-17T12:33:54.600Z,8.10
2018-05-17T12:36:21.229Z,9.60
2018-05-17T12:38:47.879Z,16.83
2018-05-17T12:41:14.510Z,11.63
2018-05-17T12:43:41.159Z,15.63
2018-05-17T12:46:07.900Z,10.73
2018-05-17T12:48:34.640Z,11.50
2018-05-17T12:51:01.301Z,7.97
2018-05-17T12:53:27.952Z,10.27
2018-05-17T12:55:54.654Z,11.30
2018-05-17T12:58:21.400Z,10.52
2018-05-17T13:00:48.040Z,8.70
2018-05-17T13:03:14.669Z,11.40
2018-05-17T13:05:41.302Z,8.63
2018-05-17T13:08:07.926Z,13.93
2018-05-17T13:10:34.603Z,7.20
2018-05-17T13:13:01.343Z,11.47
2018-05-17T13:15:27.970Z,10.93
2018-05-17T13:17:54.634Z,10.80
2018-05-17T13:20:21.360Z,9.83
2018-05-17T13:22:48.099Z,10.13
2018-05-17T13:25:14.834Z,10.43
2018-05-17T13:27:41.450Z,7.53
2018-05-17T13:30:08.079Z,9.27
2018-05-17T13:32:34.750Z,6.60
2018-05-17T13:35:01.500Z,6.40
2018-05-17T13:37:28.239Z,10.83
2018-05-17T13:39:54.776Z,8.50
2018-05-17T13:42:21.407Z,10.93
2018-05-17T13:44:48.037Z,6.97
2018-05-17T13:47:14.688Z,12.23
2018-05-17T13:49:41.357Z,9.03
2018-05-17T13:52:08.079Z,6.70
2018-05-17T13:54:34.839Z,5.37
2018-05-17T13:57:01.473Z,10.17
2018-05-17T13:59:28.219Z,7.27
2018-05-17T14:01:54.940Z,8.03
2018-05-17T14:04:21.566Z,7.17
2018-05-17T14:06:48.201Z,7.60
2018-05-17T14:09:14.860Z,8.37
2018-05-17T14:11:41.505Z,12.20
2018-05-17T14:14:08.303Z,7.77
2018-05-17T14:16:34.987Z,8.17
2018-05-17T14:19:01.730Z,18.73
2018-05-17T14:21:28.369Z,12.60
2018-05-17T14:23:55.117Z,10.50
2018-05-17T14:26:21.851Z,11.80
2018-05-17T14:28:48.475Z,9.13
2018-05-17T14:31:15.138Z,13.77
2018-05-17T14:33:41.767Z,8.10
2018-05-17T14:36:08.500Z,11.40
2018-05-17T14:38:35.139Z,12.07
2018-05-17T14:41:01.770Z,13.90
2018-05-17T14:43:28.521Z,10.43
2018-05-17T14:45:55.180Z,11.47
2018-05-17T14:48:21.817Z,10.87
2018-05-17T14:50:48.548Z,9.07
2018-05-17T14:53:15.276Z,9.27
2018-05-17T14:55:41.937Z,11.20
2018-05-17T14:58:08.678Z,16.93
2018-05-17T15:00:35.323Z,7.90
2018-05-17T15:03:01.956Z,10.77
2018-05-17T15:05:28.683Z,11.47
2018-05-17T15:07:55.328Z,9.20
2018-05-17T15:10:21.959Z,11.07
2018-05-17T15:12:48.584Z,9.00
2018-05-17T15:15:15.336Z,9.20
2018-05-17T15:17:41.955Z,8.20
2018-05-17T15:20:08.618Z,11.30
2018-05-17T15:22:35.351Z,7.30
2018-05-17T15:25:02.023Z,16.50
2018-05-17T15:27:28.721Z,10.40
2018-05-17T15:29:55.336Z,10.17
2018-05-17T15:32:22.007Z,7.90
2018-05-17T15:34:48.660Z,12.50
2018-05-17T15:37:15.404Z,10.43
2018-05-17T15:39:42.027Z,8.03
2018-05-17T15:42:08.666Z,7.37
2018-05-17T15:44:35.314Z,7.73
2018-05-17T15:47:01.945Z,8.30
2018-05-17T15:49:28.568Z,9.40
2018-05-17T15:51:55.336Z,6.93
2018-05-17T15:54:21.959Z,8.80
2018-05-17T15:56:48.615Z,5.43
2018-05-17T15:59:15.375Z,6.53
2018-05-17T16:01:42.000Z,7.97
2018-05-17T16:04:08.624Z,10.83
2018-05-17T16:06:35.290Z,8.80
2018-05-17T16:09:01.916Z,13.17
2018-05-17T16:11:28.552Z,6.22
2018-05-17T16:13:55.198Z,10.93
2018-05-17T16:16:21.817Z,13.43
2018-05-17T16:18:48.443Z,7.75
2018-05-17T16:21:15.078Z,6.82
2018-05-17T16:23:41.704Z,9.35
2018-05-17T16:26:08.327Z,5.78
2018-05-17T16:28:34.979Z,9.70
2018-05-17T16:31:01.655Z,10.68
2018-05-17T16:33:28.280Z,10.02
2018-05-17T16:35:54.931Z,15.00
2018-05-17T16:38:21.582Z,11.60
2018-05-17T16:40:48.215Z,13.18
2018-05-17T16:43:14.849Z,7.20
2018-05-17T16:45:41.466Z,8.98
2018-05-17T16:48:08.143Z,22.85
2018-05-17T16:50:34.867Z,9.70
2018-05-17T16:53:01.535Z,12.85
2018-05-17T16:55:28.155Z,14.87
2018-05-17T16:57:54.796Z,9.32
2018-05-17T17:00:21.558Z,8.18
2018-05-17T17:02:48.278Z,12.50
2018-05-17T17:05:14.914Z,9.38
2018-05-17T17:07:41.546Z,6.57
2018-05-17T17:10:08.173Z,14.13
2018-05-17T17:12:34.806Z,11.98
2018-05-17T17:15:01.431Z,20.67
2018-05-17T17:17:28.049Z,7.37
2018-05-17T17:19:54.693Z,24.95
2018-05-17T17:22:21.311Z,8.77
2018-05-17T17:24:47.931Z,8.75
2018-05-17T17:27:14.574Z,16.37
2018-05-17T17:29:41.208Z,16.40
2018-05-17T17:32:07.947Z,13.52
2018-05-17T17:34:34.580Z,9.35
2018-05-17T17:37:01.204Z,8.27
2018-05-17T17:39:27.860Z,12.15
2018-05-17T17:41:54.604Z,16.00
2018-05-17T17:44:21.232Z,12.65
2018-05-17T17:46:47.868Z,17.48
2018-05-17T17:49:14.508Z,15.90
2018-05-17T17:51:41.135Z,9.70
2018-05-17T17:54:07.767Z,10.25
2018-05-17T17:56:34.407Z,15.68
2018-05-17T17:59:01.028Z,11.07
2018-05-17T18:01:27.715Z,20.65
2018-05-17T18:03:54.365Z,11.32
2018-05-17T18:06:20.995Z,11.15
2018-05-17T18:08:47.618Z,12.30
2018-05-17T18:11:14.267Z,15.68
2018-05-17T18:13:40.911Z,11.52
2018-05-17T18:16:07.530Z,6.85
2018-05-17T18:18:34.292Z,18.02
2018-05-17T18:21:01.032Z,11.85
2018-05-17T18:23:27.723Z,16.05
2018-05-17T18:25:54.362Z,18.48
2018-05-17T18:28:20.996Z,8.32
2018-05-17T18:30:47.682Z,16.73
2018-05-17T18:33:14.319Z,16.12
2018-05-17T18:35:40.948Z,9.90
2018-05-17T18:38:07.601Z,14.00
2018-05-17T18:40:34.239Z,15.20
2018-05-17T18:43:00.871Z,21.92
2018-05-17T18:45:27.500Z,15.10
2018-05-17T18:47:54.159Z,11.32
2018-05-17T18:50:20.900Z,31.65
2018-05-17T18:52:47.522Z,20.20
2018-05-17T18:55:14.171Z,42.67
2018-05-17T18:57:40.811Z,16.52
2018-05-17T19:00:07.444Z,14.18
2018-05-17T19:02:34.107Z,17.95
2018-05-17T19:05:00.731Z,12.15
2018-05-17T19:07:27.403Z,14.10
2018-05-17T19:09:54.119Z,15.88
2018-05-17T19:12:20.743Z,18.05
2018-05-17T19:14:47.399Z,15.25
2018-05-17T19:17:14.027Z,18.05
2018-05-17T19:19:40.674Z,15.32
2018-05-17T19:22:07.442Z,15.48
2018-05-17T19:24:34.062Z,19.37
2018-05-17T19:27:00.699Z,14.68
2018-05-17T19:29:27.431Z,26.65
2018-05-17T19:31:54.070Z,19.83
2018-05-17T19:34:20.698Z,15.60
2018-05-17T19:36:47.350Z,14.87
2018-05-17T19:39:13.989Z,18.30
2018-05-17T19:41:40.710Z,10.90
2018-05-17T19:44:07.370Z,25.92
2018-05-17T19:46:33.999Z,13.75
2018-05-17T19:49:00.647Z,12.27
2018-05-17T19:51:27.291Z,16.75
2018-05-17T19:53:54.030Z,15.32
2018-05-17T19:56:20.667Z,17.15
2018-05-17T19:58:47.334Z,21.08
2018-05-17T20:01:14.047Z,19.55
2018-05-17T20:03:40.796Z,21.40
2018-05-17T20:06:07.456Z,17.75
2018-05-17T20:08:34.175Z,24.87
2018-05-17T20:11:00.814Z,15.65
2018-05-17T20:13:27.438Z,18.20
2018-05-17T20:15:54.192Z,20.95
2018-05-17T20:18:20.935Z,21.80
2018-05-17T20:20:47.597Z,17.60
2018-05-17T20:23:14.217Z,16.77
2018-05-17T20:25:40.857Z,12.60
2018-05-17T20:28:07.507Z,10.75
2018-05-17T20:30:34.231Z,19.75
2018-05-17T20:33:00.931Z,16.05
2018-05-17T20:35:27.619Z,19.67
2018-05-17T20:37:54.259Z,17.25
2018-05-17T20:40:20.986Z,18.52
2018-05-17T20:42:47.619Z,19.17
2018-05-17T20:45:14.351Z,19.35
2018-05-17T20:47:40.984Z,21.27
2018-05-17T20:50:07.622Z,17.23
2018-05-17T20:52:34.287Z,16.12
2018-05-17T20:55:00.919Z,18.42
2018-05-17T20:57:27.695Z,17.77
2018-05-17T20:59:54.328Z,22.90
2018-05-17T21:02:21.074Z,26.73
2018-05-17T21:04:47.715Z,16.92
2018-05-17T21:07:14.334Z,17.87
2018-05-17T21:09:40.970Z,18.02
2018-05-17T21:12:07.599Z,29.65
2018-05-17T21:14:34.249Z,38.88
2018-05-17T21:17:00.882Z,42.67
2018-05-17T21:19:27.516Z,48.22
2018-05-17T21:21:54.168Z,52.47
2018-05-17T21:24:20.794Z,55.83
2018-05-17T21:26:47.431Z,47.90
2018-05-17T21:29:14.067Z,35.38
2018-05-17T21:31:40.699Z,79.03
2018-05-17T21:34:07.373Z,63.08
2018-05-17T21:36:34.094Z,53.95
2018-05-17T21:39:00.723Z,70.60
2018-05-17T21:41:27.367Z,36.42
2018-05-17T21:43:53.994Z,23.42
2018-05-17T21:46:20.639Z,30.55
2018-05-17T21:48:47.271Z,25.73
2018-05-17T21:51:13.899Z,22.08
2018-05-17T21:53:40.583Z,23.20
2018-05-17T21:56:07.578Z,27.62
2018-05-17T21:58:34.235Z,21.60
2018-05-17T22:01:00.871Z,23.73
2018-05-17T22:03:27.539Z,17.23
2018-05-17T22:05:54.178Z,27.37
2018-05-17T22:08:20.815Z,24.52
2018-05-17T22:10:47.569Z,35.45
2018-05-17T22:13:14.203Z,27.87
2018-05-17T22:15:40.835Z,28.73
2018-05-17T22:18:07.582Z,24.25
2018-05-17T22:20:34.211Z,20.58
2018-05-17T22:23:00.958Z,29.30
2018-05-17T22:25:27.592Z,20.40
2018-05-17T22:27:54.232Z,13.07
2018-05-17T22:30:20.883Z,19.83
2018-05-17T22:32:47.619Z,24.58
2018-05-17T22:35:14.255Z,21.98
2018-05-17T22:37:40.899Z,15.82
2018-05-17T22:40:07.543Z,20.60
2018-05-17T22:42:34.275Z,20.30
2018-05-17T22:45:00.904Z,25.98
2018-05-17T22:47:27.544Z,19.02
2018-05-17T22:49:54.166Z,19.20
2018-05-17T22:52:20.799Z,16.73
2018-05-17T22:54:47.437Z,17.90
2018-05-17T22:57:14.077Z,19.55
2018-05-17T22:59:40.716Z,18.17
2018-05-17T23:02:07.382Z,19.35
2018-05-17T23:04:34.034Z,22.65
2018-05-17T23:07:00.770Z,28.45
2018-05-17T23:09:27.412Z,15.68
2018-05-17T23:11:54.143Z,20.12
2018-05-17T23:14:20.779Z,20.08
2018-05-17T23:16:47.423Z,16.60
2018-05-17T23:19:14.051Z,16.75
2018-05-17T23:21:40.675Z,21.25
2018-05-17T23:24:07.321Z,21.80
2018-05-17T23:26:33.992Z,17.73
2018-05-17T23:29:00.640Z,20.10
2018-05-17T23:31:27.267Z,18.02
2018-05-17T23:33:53.895Z,18.65
2018-05-17T23:36:20.639Z,25.77
2018-05-17T23:38:47.272Z,21.95
2018-05-17T23:41:19.758Z,17.35
2018-05-17T23:43:46.383Z,23.10
2018-05-17T23:46:13.020Z,22.20
2018-05-17T23:48:39.775Z,30.85
2018-05-17T23:51:06.412Z,18.85
2018-05-17T23:53:33.052Z,17.17
2018-05-17T23:55:59.695Z,21.42
2018-05-17T23:58:26.325Z,21.45
